sensor_id;sensor_type;location;lat;lon;timestamp;P1;durP1;ratioP1;P2;durP2;ratioP2
60014;SDS011;45867;52.480;6.056;2022-07-17T00:00:10;7.63;;;3.15;;
60014;SDS011;45867;52.480;6.056;2022-07-17T00:02:36;6.93;;;3.00;;
60014;SDS011;45867;52.480;6.056;2022-07-17T00:05:01;14.82;;;3.38;;
60014;SDS011;45867;52.480;6.056;2022-07-17T00:07:26;7.32;;;3.05;;
60014;SDS011;45867;52.480;6.056;2022-07-17T00:09:51;13.30;;;3.00;;
60014;SDS011;45867;52.480;6.056;2022-07-17T00:12:17;9.13;;;2.92;;
60014;SDS011;45867;52.480;6.056;2022-07-17T00:14:42;10.23;;;3.08;;
60014;SDS011;45867;52.480;6.056;2022-07-17T00:17:07;11.07;;;3.17;;
60014;SDS011;45867;52.480;6.056;2022-07-17T00:19:33;13.60;;;3.22;;
60014;SDS011;45867;52.480;6.056;2022-07-17T00:21:58;10.10;;;2.80;;
60014;SDS011;45867;52.480;6.056;2022-07-17T00:24:23;7.53;;;2.78;;
60014;SDS011;45867;52.480;6.056;2022-07-17T00:26:49;11.30;;;3.20;;
60014;SDS011;45867;52.480;6.056;2022-07-17T00:29:15;10.07;;;3.00;;
60014;SDS011;45867;52.480;6.056;2022-07-17T00:31:41;5.22;;;2.75;;
60014;SDS011;45867;52.480;6.056;2022-07-17T00:34:06;10.55;;;3.15;;
60014;SDS011;45867;52.480;6.056;2022-07-17T00:36:31;17.00;;;3.53;;
60014;SDS011;45867;52.480;6.056;2022-07-17T00:38:57;5.30;;;2.70;;
60014;SDS011;45867;52.480;6.056;2022-07-17T00:41:22;10.07;;;3.15;;
60014;SDS011;45867;52.480;6.056;2022-07-17T00:43:47;7.85;;;2.60;;
60014;SDS011;45867;52.480;6.056;2022-07-17T00:46:13;10.48;;;2.80;;
60014;SDS011;45867;52.480;6.056;2022-07-17T00:48:38;7.82;;;2.55;;
60014;SDS011;45867;52.480;6.056;2022-07-17T00:51:03;10.70;;;2.80;;
60014;SDS011;45867;52.480;6.056;2022-07-17T00:53:30;5.75;;;2.40;;
60014;SDS011;45867;52.480;6.056;2022-07-17T00:55:56;12.43;;;2.30;;
60014;SDS011;45867;52.480;6.056;2022-07-17T00:58:23;5.10;;;2.60;;
60014;SDS011;45867;52.480;6.056;2022-07-17T01:00:49;6.20;;;2.33;;
60014;SDS011;45867;52.480;6.056;2022-07-17T01:03:15;4.50;;;2.50;;
60014;SDS011;45867;52.480;6.056;2022-07-17T01:05:41;6.43;;;2.42;;
60014;SDS011;45867;52.480;6.056;2022-07-17T01:08:06;6.47;;;2.53;;
60014;SDS011;45867;52.480;6.056;2022-07-17T01:10:31;5.07;;;2.35;;
60014;SDS011;45867;52.480;6.056;2022-07-17T01:12:57;6.20;;;2.53;;
60014;SDS011;45867;52.480;6.056;2022-07-17T01:15:22;9.77;;;2.65;;
60014;SDS011;45867;52.480;6.056;2022-07-17T01:17:49;4.85;;;2.30;;
60014;SDS011;45867;52.480;6.056;2022-07-17T01:20:14;7.10;;;2.47;;
60014;SDS011;45867;52.480;6.056;2022-07-17T01:22:43;7.10;;;2.58;;
60014;SDS011;45867;52.480;6.056;2022-07-17T01:25:09;6.78;;;2.00;;
60014;SDS011;45867;52.480;6.056;2022-07-17T01:27:35;5.80;;;2.70;;
60014;SDS011;45867;52.480;6.056;2022-07-17T01:30:00;7.38;;;2.20;;
60014;SDS011;45867;52.480;6.056;2022-07-17T01:32:35;5.75;;;2.35;;
60014;SDS011;45867;52.480;6.056;2022-07-17T01:35:01;6.53;;;2.40;;
60014;SDS011;45867;52.480;6.056;2022-07-17T01:37:36;3.25;;;1.92;;
60014;SDS011;45867;52.480;6.056;2022-07-17T01:40:01;5.13;;;2.08;;
60014;SDS011;45867;52.480;6.056;2022-07-17T01:42:27;6.18;;;2.40;;
60014;SDS011;45867;52.480;6.056;2022-07-17T01:44:53;4.00;;;2.25;;
60014;SDS011;45867;52.480;6.056;2022-07-17T01:47:18;6.00;;;2.20;;
60014;SDS011;45867;52.480;6.056;2022-07-17T01:49:45;7.78;;;2.53;;
60014;SDS011;45867;52.480;6.056;2022-07-17T01:52:10;4.05;;;2.35;;
60014;SDS011;45867;52.480;6.056;2022-07-17T01:54:35;8.88;;;3.03;;
60014;SDS011;45867;52.480;6.056;2022-07-17T01:57:00;5.53;;;2.63;;
60014;SDS011;45867;52.480;6.056;2022-07-17T01:59:26;8.50;;;2.83;;
60014;SDS011;45867;52.480;6.056;2022-07-17T02:01:51;6.78;;;2.80;;
60014;SDS011;45867;52.480;6.056;2022-07-17T02:04:16;6.10;;;2.33;;
60014;SDS011;45867;52.480;6.056;2022-07-17T02:06:41;6.63;;;2.53;;
60014;SDS011;45867;52.480;6.056;2022-07-17T02:09:07;8.77;;;2.40;;
60014;SDS011;45867;52.480;6.056;2022-07-17T02:11:32;7.88;;;2.60;;
60014;SDS011;45867;52.480;6.056;2022-07-17T02:13:57;11.40;;;3.20;;
60014;SDS011;45867;52.480;6.056;2022-07-17T02:16:22;5.50;;;2.60;;
60014;SDS011;45867;52.480;6.056;2022-07-17T02:18:48;6.18;;;2.53;;
60014;SDS011;45867;52.480;6.056;2022-07-17T02:21:13;6.45;;;2.58;;
60014;SDS011;45867;52.480;6.056;2022-07-17T02:23:38;6.00;;;2.30;;
60014;SDS011;45867;52.480;6.056;2022-07-17T02:26:03;5.10;;;2.50;;
60014;SDS011;45867;52.480;6.056;2022-07-17T02:28:29;4.53;;;2.40;;
60014;SDS011;45867;52.480;6.056;2022-07-17T02:30:54;6.67;;;2.50;;
60014;SDS011;45867;52.480;6.056;2022-07-17T02:33:19;6.45;;;2.67;;
60014;SDS011;45867;52.480;6.056;2022-07-17T02:35:45;3.35;;;2.35;;
60014;SDS011;45867;52.480;6.056;2022-07-17T02:38:10;5.13;;;2.22;;
60014;SDS011;45867;52.480;6.056;2022-07-17T02:40:35;7.45;;;2.38;;
60014;SDS011;45867;52.480;6.056;2022-07-17T02:43:00;6.38;;;2.47;;
60014;SDS011;45867;52.480;6.056;2022-07-17T02:45:26;3.40;;;2.07;;
60014;SDS011;45867;52.480;6.056;2022-07-17T02:47:51;4.00;;;2.28;;
60014;SDS011;45867;52.480;6.056;2022-07-17T02:50:17;3.70;;;2.55;;
60014;SDS011;45867;52.480;6.056;2022-07-17T02:52:43;6.00;;;2.30;;
60014;SDS011;45867;52.480;6.056;2022-07-17T02:55:09;4.10;;;2.20;;
60014;SDS011;45867;52.480;6.056;2022-07-17T02:57:35;10.07;;;2.58;;
60014;SDS011;45867;52.480;6.056;2022-07-17T03:00:00;7.15;;;2.50;;
60014;SDS011;45867;52.480;6.056;2022-07-17T03:02:25;6.95;;;2.60;;
60014;SDS011;45867;52.480;6.056;2022-07-17T03:04:51;5.50;;;2.70;;
60014;SDS011;45867;52.480;6.056;2022-07-17T03:07:16;5.65;;;2.40;;
60014;SDS011;45867;52.480;6.056;2022-07-17T03:09:41;5.25;;;2.45;;
60014;SDS011;45867;52.480;6.056;2022-07-17T03:12:07;4.67;;;2.73;;
60014;SDS011;45867;52.480;6.056;2022-07-17T03:14:32;5.20;;;2.75;;
60014;SDS011;45867;52.480;6.056;2022-07-17T03:16:57;7.68;;;2.80;;
60014;SDS011;45867;52.480;6.056;2022-07-17T03:19:23;9.47;;;2.83;;
60014;SDS011;45867;52.480;6.056;2022-07-17T03:21:48;4.78;;;2.47;;
60014;SDS011;45867;52.480;6.056;2022-07-17T03:24:13;4.30;;;2.15;;
60014;SDS011;45867;52.480;6.056;2022-07-17T03:26:39;5.03;;;2.10;;
60014;SDS011;45867;52.480;6.056;2022-07-17T03:29:04;4.55;;;2.15;;
60014;SDS011;45867;52.480;6.056;2022-07-17T03:31:29;4.25;;;2.20;;
60014;SDS011;45867;52.480;6.056;2022-07-17T03:33:55;8.82;;;2.50;;
60014;SDS011;45867;52.480;6.056;2022-07-17T03:36:20;4.87;;;2.40;;
60014;SDS011;45867;52.480;6.056;2022-07-17T03:38:45;5.88;;;2.40;;
60014;SDS011;45867;52.480;6.056;2022-07-17T03:41:10;6.95;;;2.20;;
60014;SDS011;45867;52.480;6.056;2022-07-17T03:43:37;8.00;;;2.70;;
60014;SDS011;45867;52.480;6.056;2022-07-17T03:46:02;4.78;;;2.63;;
60014;SDS011;45867;52.480;6.056;2022-07-17T03:48:28;5.43;;;2.53;;
60014;SDS011;45867;52.480;6.056;2022-07-17T03:50:53;4.25;;;2.33;;
60014;SDS011;45867;52.480;6.056;2022-07-17T03:53:18;5.23;;;2.60;;
60014;SDS011;45867;52.480;6.056;2022-07-17T03:55:44;8.52;;;2.55;;
60014;SDS011;45867;52.480;6.056;2022-07-17T03:58:09;7.30;;;3.25;;
60014;SDS011;45867;52.480;6.056;2022-07-17T04:00:34;11.05;;;3.03;;
60014;SDS011;45867;52.480;6.056;2022-07-17T04:02:59;7.53;;;3.00;;
60014;SDS011;45867;52.480;6.056;2022-07-17T04:05:25;5.97;;;2.67;;
60014;SDS011;45867;52.480;6.056;2022-07-17T04:07:50;4.33;;;2.50;;
60014;SDS011;45867;52.480;6.056;2022-07-17T04:10:15;7.55;;;2.70;;
60014;SDS011;45867;52.480;6.056;2022-07-17T04:12:41;6.22;;;2.55;;
60014;SDS011;45867;52.480;6.056;2022-07-17T04:15:06;3.78;;;2.53;;
60014;SDS011;45867;52.480;6.056;2022-07-17T04:17:32;5.38;;;2.70;;
60014;SDS011;45867;52.480;6.056;2022-07-17T04:19:58;8.68;;;2.78;;
60014;SDS011;45867;52.480;6.056;2022-07-17T04:22:23;4.97;;;2.53;;
60014;SDS011;45867;52.480;6.056;2022-07-17T04:24:49;6.73;;;2.53;;
60014;SDS011;45867;52.480;6.056;2022-07-17T04:27:14;7.05;;;2.85;;
60014;SDS011;45867;52.480;6.056;2022-07-17T04:29:39;9.85;;;2.65;;
60014;SDS011;45867;52.480;6.056;2022-07-17T04:32:05;7.85;;;2.97;;
60014;SDS011;45867;52.480;6.056;2022-07-17T04:34:30;4.63;;;2.45;;
60014;SDS011;45867;52.480;6.056;2022-07-17T04:36:57;7.72;;;2.70;;
60014;SDS011;45867;52.480;6.056;2022-07-17T04:39:22;7.95;;;2.40;;
60014;SDS011;45867;52.480;6.056;2022-07-17T04:41:48;8.27;;;2.90;;
60014;SDS011;45867;52.480;6.056;2022-07-17T04:44:14;8.50;;;2.50;;
60014;SDS011;45867;52.480;6.056;2022-07-17T04:46:39;4.35;;;2.65;;
60014;SDS011;45867;52.480;6.056;2022-07-17T04:49:04;6.90;;;2.23;;
60014;SDS011;45867;52.480;6.056;2022-07-17T04:51:29;8.65;;;2.22;;
60014;SDS011;45867;52.480;6.056;2022-07-17T04:53:55;6.87;;;2.47;;
60014;SDS011;45867;52.480;6.056;2022-07-17T04:56:21;7.00;;;2.40;;
60014;SDS011;45867;52.480;6.056;2022-07-17T04:58:46;9.68;;;2.42;;
60014;SDS011;45867;52.480;6.056;2022-07-17T05:01:11;16.92;;;2.78;;
60014;SDS011;45867;52.480;6.056;2022-07-17T05:03:37;17.43;;;2.20;;
60014;SDS011;45867;52.480;6.056;2022-07-17T05:06:03;9.18;;;2.30;;
60014;SDS011;45867;52.480;6.056;2022-07-17T05:08:28;8.88;;;2.40;;
60014;SDS011;45867;52.480;6.056;2022-07-17T05:10:53;7.85;;;2.38;;
60014;SDS011;45867;52.480;6.056;2022-07-17T05:13:18;6.97;;;2.40;;
60014;SDS011;45867;52.480;6.056;2022-07-17T05:15:44;9.80;;;2.30;;
60014;SDS011;45867;52.480;6.056;2022-07-17T05:18:09;4.70;;;2.15;;
60014;SDS011;45867;52.480;6.056;2022-07-17T05:20:35;10.85;;;2.40;;
60014;SDS011;45867;52.480;6.056;2022-07-17T05:23:00;5.28;;;2.55;;
60014;SDS011;45867;52.480;6.056;2022-07-17T05:25:25;10.27;;;2.85;;
60014;SDS011;45867;52.480;6.056;2022-07-17T05:27:50;11.98;;;2.38;;
60014;SDS011;45867;52.480;6.056;2022-07-17T05:30:16;5.15;;;2.47;;
60014;SDS011;45867;52.480;6.056;2022-07-17T05:32:41;8.40;;;2.70;;
60014;SDS011;45867;52.480;6.056;2022-07-17T05:35:06;9.00;;;2.53;;
60014;SDS011;45867;52.480;6.056;2022-07-17T05:37:32;7.95;;;2.63;;
60014;SDS011;45867;52.480;6.056;2022-07-17T05:39:58;9.07;;;2.95;;
60014;SDS011;45867;52.480;6.056;2022-07-17T05:42:23;6.25;;;2.20;;
60014;SDS011;45867;52.480;6.056;2022-07-17T05:44:49;9.18;;;2.70;;
60014;SDS011;45867;52.480;6.056;2022-07-17T05:47:14;10.18;;;2.70;;
60014;SDS011;45867;52.480;6.056;2022-07-17T05:49:39;8.68;;;2.60;;
60014;SDS011;45867;52.480;6.056;2022-07-17T05:52:05;5.10;;;2.40;;
60014;SDS011;45867;52.480;6.056;2022-07-17T05:54:30;8.25;;;2.22;;
60014;SDS011;45867;52.480;6.056;2022-07-17T05:56:57;10.25;;;2.55;;
60014;SDS011;45867;52.480;6.056;2022-07-17T05:59:23;5.45;;;2.13;;
60014;SDS011;45867;52.480;6.056;2022-07-17T06:01:48;11.97;;;2.53;;
60014;SDS011;45867;52.480;6.056;2022-07-17T06:04:13;6.40;;;2.30;;
60014;SDS011;45867;52.480;6.056;2022-07-17T06:06:39;5.82;;;2.40;;
60014;SDS011;45867;52.480;6.056;2022-07-17T06:09:04;13.25;;;2.30;;
60014;SDS011;45867;52.480;6.056;2022-07-17T06:11:29;8.07;;;2.28;;
60014;SDS011;45867;52.480;6.056;2022-07-17T06:13:55;7.00;;;1.88;;
60014;SDS011;45867;52.480;6.056;2022-07-17T06:16:20;7.70;;;2.00;;
60014;SDS011;45867;52.480;6.056;2022-07-17T06:18:45;14.87;;;2.00;;
60014;SDS011;45867;52.480;6.056;2022-07-17T06:21:10;12.32;;;2.17;;
60014;SDS011;45867;52.480;6.056;2022-07-17T06:23:36;9.00;;;2.00;;
60014;SDS011;45867;52.480;6.056;2022-07-17T06:26:07;5.40;;;1.90;;
60014;SDS011;45867;52.480;6.056;2022-07-17T06:28:32;6.55;;;1.60;;
60014;SDS011;45867;52.480;6.056;2022-07-17T06:30:57;6.95;;;1.83;;
60014;SDS011;45867;52.480;6.056;2022-07-17T06:33:23;7.30;;;1.88;;
60014;SDS011;45867;52.480;6.056;2022-07-17T06:35:51;4.90;;;1.60;;
60014;SDS011;45867;52.480;6.056;2022-07-17T06:38:17;5.00;;;1.58;;
60014;SDS011;45867;52.480;6.056;2022-07-17T06:40:42;7.00;;;2.00;;
60014;SDS011;45867;52.480;6.056;2022-07-17T06:43:07;4.93;;;1.73;;
60014;SDS011;45867;52.480;6.056;2022-07-17T06:45:39;7.65;;;1.63;;
60014;SDS011;45867;52.480;6.056;2022-07-17T06:50:29;14.63;;;1.63;;
60014;SDS011;45867;52.480;6.056;2022-07-17T06:52:57;6.30;;;1.58;;
60014;SDS011;45867;52.480;6.056;2022-07-17T06:55:29;7.43;;;1.70;;
60014;SDS011;45867;52.480;6.056;2022-07-17T06:57:56;7.40;;;1.60;;
60014;SDS011;45867;52.480;6.056;2022-07-17T07:00:25;7.72;;;1.40;;
60014;SDS011;45867;52.480;6.056;2022-07-17T07:02:50;9.23;;;2.00;;
60014;SDS011;45867;52.480;6.056;2022-07-17T07:05:16;5.15;;;1.20;;
60014;SDS011;45867;52.480;6.056;2022-07-17T07:07:41;4.57;;;1.50;;
60014;SDS011;45867;52.480;6.056;2022-07-17T07:10:06;7.60;;;1.70;;
60014;SDS011;45867;52.480;6.056;2022-07-17T07:12:34;6.95;;;1.42;;
60014;SDS011;45867;52.480;6.056;2022-07-17T07:15:00;5.18;;;1.38;;
60014;SDS011;45867;52.480;6.056;2022-07-17T07:17:30;11.55;;;1.88;;
60014;SDS011;45867;52.480;6.056;2022-07-17T07:19:57;11.25;;;1.70;;
60014;SDS011;45867;52.480;6.056;2022-07-17T07:22:22;8.15;;;1.73;;
60014;SDS011;45867;52.480;6.056;2022-07-17T07:24:48;4.85;;;1.52;;
60014;SDS011;45867;52.480;6.056;2022-07-17T07:27:13;6.93;;;1.60;;
60014;SDS011;45867;52.480;6.056;2022-07-17T07:29:38;8.07;;;1.42;;
60014;SDS011;45867;52.480;6.056;2022-07-17T07:32:04;5.43;;;1.45;;
60014;SDS011;45867;52.480;6.056;2022-07-17T07:34:29;9.30;;;1.77;;
60014;SDS011;45867;52.480;6.056;2022-07-17T07:36:55;6.90;;;1.55;;
60014;SDS011;45867;52.480;6.056;2022-07-17T07:39:20;9.23;;;1.70;;
60014;SDS011;45867;52.480;6.056;2022-07-17T07:41:45;6.40;;;1.65;;
60014;SDS011;45867;52.480;6.056;2022-07-17T07:44:11;8.80;;;1.90;;
60014;SDS011;45867;52.480;6.056;2022-07-17T07:46:37;10.07;;;2.00;;
60014;SDS011;45867;52.480;6.056;2022-07-17T07:49:03;7.20;;;1.63;;
60014;SDS011;45867;52.480;6.056;2022-07-17T07:51:29;8.52;;;1.70;;
60014;SDS011;45867;52.480;6.056;2022-07-17T07:53:54;7.40;;;1.70;;
60014;SDS011;45867;52.480;6.056;2022-07-17T07:56:19;9.82;;;1.55;;
60014;SDS011;45867;52.480;6.056;2022-07-17T07:58:45;8.30;;;1.95;;
60014;SDS011;45867;52.480;6.056;2022-07-17T08:01:10;7.90;;;1.60;;
60014;SDS011;45867;52.480;6.056;2022-07-17T08:03:35;5.03;;;1.52;;
60014;SDS011;45867;52.480;6.056;2022-07-17T08:06:00;4.57;;;1.50;;
60014;SDS011;45867;52.480;6.056;2022-07-17T08:08:26;5.68;;;1.73;;
60014;SDS011;45867;52.480;6.056;2022-07-17T08:10:51;8.32;;;1.50;;
60014;SDS011;45867;52.480;6.056;2022-07-17T08:13:17;30.30;;;3.05;;
60014;SDS011;45867;52.480;6.056;2022-07-17T08:15:42;10.55;;;1.80;;
60014;SDS011;45867;52.480;6.056;2022-07-17T08:18:07;12.98;;;2.05;;
60014;SDS011;45867;52.480;6.056;2022-07-17T08:20:33;4.97;;;1.40;;
60014;SDS011;45867;52.480;6.056;2022-07-17T08:22:58;5.88;;;1.70;;
60014;SDS011;45867;52.480;6.056;2022-07-17T08:25:23;5.20;;;1.60;;
60014;SDS011;45867;52.480;6.056;2022-07-17T08:27:48;5.13;;;1.38;;
60014;SDS011;45867;52.480;6.056;2022-07-17T08:30:14;6.65;;;1.95;;
60014;SDS011;45867;52.480;6.056;2022-07-17T08:32:40;9.27;;;1.77;;
60014;SDS011;45867;52.480;6.056;2022-07-17T08:35:05;10.70;;;1.55;;
60014;SDS011;45867;52.480;6.056;2022-07-17T08:37:41;9.30;;;1.65;;
60014;SDS011;45867;52.480;6.056;2022-07-17T08:40:06;8.50;;;1.83;;
60014;SDS011;45867;52.480;6.056;2022-07-17T08:42:32;8.77;;;1.60;;
60014;SDS011;45867;52.480;6.056;2022-07-17T08:44:57;6.90;;;1.50;;
60014;SDS011;45867;52.480;6.056;2022-07-17T08:47:22;8.00;;;1.77;;
60014;SDS011;45867;52.480;6.056;2022-07-17T08:49:48;7.65;;;1.67;;
60014;SDS011;45867;52.480;6.056;2022-07-17T08:52:13;6.78;;;1.63;;
60014;SDS011;45867;52.480;6.056;2022-07-17T08:54:39;6.07;;;1.38;;
60014;SDS011;45867;52.480;6.056;2022-07-17T08:57:05;7.65;;;1.48;;
60014;SDS011;45867;52.480;6.056;2022-07-17T08:59:30;5.22;;;1.85;;
60014;SDS011;45867;52.480;6.056;2022-07-17T09:01:55;5.15;;;1.50;;
60014;SDS011;45867;52.480;6.056;2022-07-17T09:04:21;7.47;;;1.73;;
60014;SDS011;45867;52.480;6.056;2022-07-17T09:06:46;4.03;;;1.50;;
60014;SDS011;45867;52.480;6.056;2022-07-17T09:09:22;5.75;;;1.60;;
60014;SDS011;45867;52.480;6.056;2022-07-17T09:11:50;3.90;;;1.47;;
60014;SDS011;45867;52.480;6.056;2022-07-17T09:14:17;5.55;;;1.50;;
60014;SDS011;45867;52.480;6.056;2022-07-17T09:19:23;4.57;;;1.63;;
60014;SDS011;45867;52.480;6.056;2022-07-17T09:21:48;5.22;;;1.20;;
60014;SDS011;45867;52.480;6.056;2022-07-17T09:24:15;5.13;;;1.42;;
60014;SDS011;45867;52.480;6.056;2022-07-17T09:26:43;9.10;;;1.70;;
60014;SDS011;45867;52.480;6.056;2022-07-17T09:29:09;3.58;;;1.20;;
60014;SDS011;45867;52.480;6.056;2022-07-17T09:31:37;11.00;;;1.60;;
60014;SDS011;45867;52.480;6.056;2022-07-17T09:34:02;3.30;;;1.05;;
60014;SDS011;45867;52.480;6.056;2022-07-17T09:36:28;11.77;;;2.03;;
60014;SDS011;45867;52.480;6.056;2022-07-17T09:38:54;7.90;;;1.85;;
60014;SDS011;45867;52.480;6.056;2022-07-17T09:41:20;9.85;;;1.70;;
60014;SDS011;45867;52.480;6.056;2022-07-17T09:46:16;8.00;;;1.65;;
60014;SDS011;45867;52.480;6.056;2022-07-17T09:48:44;5.73;;;1.40;;
60014;SDS011;45867;52.480;6.056;2022-07-17T09:53:45;8.63;;;1.90;;
60014;SDS011;45867;52.480;6.056;2022-07-17T09:56:11;3.90;;;1.30;;
60014;SDS011;45867;52.480;6.056;2022-07-17T09:58:37;4.60;;;1.63;;
60014;SDS011;45867;52.480;6.056;2022-07-17T10:01:04;7.93;;;2.08;;
60014;SDS011;45867;52.480;6.056;2022-07-17T10:03:29;5.22;;;1.50;;
60014;SDS011;45867;52.480;6.056;2022-07-17T10:05:55;4.93;;;1.73;;
60014;SDS011;45867;52.480;6.056;2022-07-17T10:08:20;8.70;;;1.85;;
60014;SDS011;45867;52.480;6.056;2022-07-17T10:10:46;5.40;;;1.60;;
60014;SDS011;45867;52.480;6.056;2022-07-17T10:13:11;6.95;;;1.75;;
60014;SDS011;45867;52.480;6.056;2022-07-17T10:18:47;7.70;;;1.73;;
60014;SDS011;45867;52.480;6.056;2022-07-17T10:21:18;7.68;;;1.95;;
60014;SDS011;45867;52.480;6.056;2022-07-17T10:26:15;5.38;;;1.48;;
60014;SDS011;45867;52.480;6.056;2022-07-17T10:28:45;4.93;;;1.52;;
60014;SDS011;45867;52.480;6.056;2022-07-17T10:31:24;8.50;;;1.80;;
60014;SDS011;45867;52.480;6.056;2022-07-17T10:34:00;4.18;;;1.67;;
60014;SDS011;45867;52.480;6.056;2022-07-17T10:36:33;7.07;;;1.70;;
60014;SDS011;45867;52.480;6.056;2022-07-17T10:38:58;6.20;;;1.60;;
60014;SDS011;45867;52.480;6.056;2022-07-17T10:41:35;4.90;;;1.38;;
60014;SDS011;45867;52.480;6.056;2022-07-17T10:44:00;2.87;;;1.40;;
60014;SDS011;45867;52.480;6.056;2022-07-17T10:46:25;4.80;;;1.73;;
60014;SDS011;45867;52.480;6.056;2022-07-17T10:48:52;6.57;;;1.65;;
60014;SDS011;45867;52.480;6.056;2022-07-17T10:51:17;3.53;;;1.70;;
60014;SDS011;45867;52.480;6.056;2022-07-17T10:53:43;5.18;;;1.73;;
60014;SDS011;45867;52.480;6.056;2022-07-17T10:56:08;5.37;;;1.77;;
60014;SDS011;45867;52.480;6.056;2022-07-17T10:58:34;4.63;;;1.40;;
60014;SDS011;45867;52.480;6.056;2022-07-17T11:01:10;6.85;;;1.70;;
60014;SDS011;45867;52.480;6.056;2022-07-17T11:03:38;4.85;;;1.67;;
60014;SDS011;45867;52.480;6.056;2022-07-17T11:06:07;6.68;;;1.45;;
60014;SDS011;45867;52.480;6.056;2022-07-17T11:08:34;4.55;;;1.38;;
60014;SDS011;45867;52.480;6.056;2022-07-17T11:11:00;7.93;;;1.75;;
60014;SDS011;45867;52.480;6.056;2022-07-17T11:13:25;5.70;;;1.42;;
60014;SDS011;45867;52.480;6.056;2022-07-17T11:15:50;4.77;;;1.70;;
60014;SDS011;45867;52.480;6.056;2022-07-17T11:18:17;7.07;;;1.70;;
60014;SDS011;45867;52.480;6.056;2022-07-17T11:20:50;4.47;;;1.67;;
60014;SDS011;45867;52.480;6.056;2022-07-17T11:23:15;4.70;;;1.45;;
60014;SDS011;45867;52.480;6.056;2022-07-17T11:26:02;3.72;;;1.48;;
60014;SDS011;45867;52.480;6.056;2022-07-17T11:28:34;6.18;;;1.63;;
60014;SDS011;45867;52.480;6.056;2022-07-17T11:31:00;3.65;;;1.55;;
60014;SDS011;45867;52.480;6.056;2022-07-17T11:33:26;6.20;;;1.70;;
60014;SDS011;45867;52.480;6.056;2022-07-17T11:35:52;3.38;;;1.50;;
60014;SDS011;45867;52.480;6.056;2022-07-17T11:38:28;5.22;;;1.63;;
60014;SDS011;45867;52.480;6.056;2022-07-17T11:40:54;7.10;;;1.90;;
60014;SDS011;45867;52.480;6.056;2022-07-17T11:43:20;4.55;;;1.80;;
60014;SDS011;45867;52.480;6.056;2022-07-17T11:45:45;5.97;;;1.80;;
60014;SDS011;45867;52.480;6.056;2022-07-17T11:48:11;4.22;;;1.60;;
60014;SDS011;45867;52.480;6.056;2022-07-17T11:50:36;6.85;;;1.80;;
60014;SDS011;45867;52.480;6.056;2022-07-17T11:53:03;8.35;;;1.80;;
60014;SDS011;45867;52.480;6.056;2022-07-17T11:55:35;8.68;;;2.13;;
60014;SDS011;45867;52.480;6.056;2022-07-17T11:58:01;5.63;;;2.20;;
60014;SDS011;45867;52.480;6.056;2022-07-17T12:00:26;7.17;;;1.80;;
60014;SDS011;45867;52.480;6.056;2022-07-17T12:03:02;4.68;;;1.50;;
60014;SDS011;45867;52.480;6.056;2022-07-17T12:05:28;6.07;;;1.98;;
60014;SDS011;45867;52.480;6.056;2022-07-17T12:07:54;4.22;;;1.92;;
60014;SDS011;45867;52.480;6.056;2022-07-17T12:10:20;5.88;;;2.05;;
60014;SDS011;45867;52.480;6.056;2022-07-17T12:13:00;7.57;;;2.38;;
60014;SDS011;45867;52.480;6.056;2022-07-17T12:15:39;6.15;;;2.20;;
60014;SDS011;45867;52.480;6.056;2022-07-17T12:18:05;7.22;;;1.52;;
60014;SDS011;45867;52.480;6.056;2022-07-17T12:20:44;6.32;;;1.90;;
60014;SDS011;45867;52.480;6.056;2022-07-17T12:23:25;6.18;;;1.90;;
60014;SDS011;45867;52.480;6.056;2022-07-17T12:25:51;5.45;;;1.83;;
60014;SDS011;45867;52.480;6.056;2022-07-17T12:28:16;5.63;;;2.00;;
60014;SDS011;45867;52.480;6.056;2022-07-17T12:30:41;10.57;;;1.97;;
60014;SDS011;45867;52.480;6.056;2022-07-17T12:33:07;2.70;;;1.53;;
60014;SDS011;45867;52.480;6.056;2022-07-17T12:35:32;6.88;;;1.65;;
60014;SDS011;45867;52.480;6.056;2022-07-17T12:37:57;7.47;;;2.00;;
60014;SDS011;45867;52.480;6.056;2022-07-17T12:40:22;4.27;;;1.93;;
60014;SDS011;45867;52.480;6.056;2022-07-17T12:42:48;4.27;;;1.83;;
60014;SDS011;45867;52.480;6.056;2022-07-17T12:45:13;5.35;;;1.80;;
60014;SDS011;45867;52.480;6.056;2022-07-17T12:47:38;4.32;;;1.58;;
60014;SDS011;45867;52.480;6.056;2022-07-17T12:50:04;15.40;;;2.30;;
60014;SDS011;45867;52.480;6.056;2022-07-17T12:52:29;7.03;;;1.90;;
60014;SDS011;45867;52.480;6.056;2022-07-17T12:54:54;4.47;;;1.98;;
60014;SDS011;45867;52.480;6.056;2022-07-17T12:57:20;4.07;;;2.10;;
60014;SDS011;45867;52.480;6.056;2022-07-17T12:59:45;6.37;;;1.83;;
60014;SDS011;45867;52.480;6.056;2022-07-17T13:02:10;6.45;;;2.20;;
60014;SDS011;45867;52.480;6.056;2022-07-17T13:04:36;6.28;;;2.00;;
60014;SDS011;45867;52.480;6.056;2022-07-17T13:07:05;9.40;;;2.00;;
60014;SDS011;45867;52.480;6.056;2022-07-17T13:09:30;3.38;;;1.95;;
60014;SDS011;45867;52.480;6.056;2022-07-17T13:11:55;4.10;;;1.93;;
60014;SDS011;45867;52.480;6.056;2022-07-17T13:14:21;7.53;;;2.10;;
60014;SDS011;45867;52.480;6.056;2022-07-17T13:16:46;6.77;;;2.50;;
60014;SDS011;45867;52.480;6.056;2022-07-17T13:19:11;5.05;;;1.85;;
60014;SDS011;45867;52.480;6.056;2022-07-17T13:21:36;4.30;;;2.30;;
60014;SDS011;45867;52.480;6.056;2022-07-17T13:24:02;8.98;;;2.65;;
60014;SDS011;45867;52.480;6.056;2022-07-17T13:26:27;4.93;;;2.20;;
60014;SDS011;45867;52.480;6.056;2022-07-17T13:28:53;6.23;;;2.03;;
60014;SDS011;45867;52.480;6.056;2022-07-17T13:31:18;4.07;;;2.00;;
60014;SDS011;45867;52.480;6.056;2022-07-17T13:33:43;4.47;;;2.30;;
60014;SDS011;45867;52.480;6.056;2022-07-17T13:36:09;4.97;;;2.50;;
60014;SDS011;45867;52.480;6.056;2022-07-17T13:38:34;4.43;;;2.47;;
60014;SDS011;45867;52.480;6.056;2022-07-17T13:41:00;5.28;;;2.72;;
60014;SDS011;45867;52.480;6.056;2022-07-17T13:43:25;5.85;;;2.53;;
60014;SDS011;45867;52.480;6.056;2022-07-17T13:45:50;5.80;;;2.70;;
60014;SDS011;45867;52.480;6.056;2022-07-17T13:48:16;6.82;;;2.55;;
60014;SDS011;45867;52.480;6.056;2022-07-17T13:50:41;5.28;;;3.03;;
60014;SDS011;45867;52.480;6.056;2022-07-17T13:53:07;13.13;;;3.28;;
60014;SDS011;45867;52.480;6.056;2022-07-17T13:55:32;6.30;;;2.55;;
60014;SDS011;45867;52.480;6.056;2022-07-17T13:57:58;5.32;;;2.70;;
60014;SDS011;45867;52.480;6.056;2022-07-17T14:00:24;6.15;;;3.15;;
60014;SDS011;45867;52.480;6.056;2022-07-17T14:02:49;8.30;;;3.45;;
60014;SDS011;45867;52.480;6.056;2022-07-17T14:05:14;9.65;;;2.97;;
60014;SDS011;45867;52.480;6.056;2022-07-17T14:07:40;5.75;;;2.75;;
60014;SDS011;45867;52.480;6.056;2022-07-17T14:10:05;5.53;;;2.70;;
60014;SDS011;45867;52.480;6.056;2022-07-17T14:12:31;6.95;;;2.80;;
60014;SDS011;45867;52.480;6.056;2022-07-17T14:14:56;9.25;;;3.35;;
60014;SDS011;45867;52.480;6.056;2022-07-17T14:17:21;7.47;;;2.63;;
60014;SDS011;45867;52.480;6.056;2022-07-17T14:19:47;4.53;;;2.70;;
60014;SDS011;45867;52.480;6.056;2022-07-17T14:22:12;5.73;;;2.97;;
60014;SDS011;45867;52.480;6.056;2022-07-17T14:24:37;8.03;;;2.90;;
60014;SDS011;45867;52.480;6.056;2022-07-17T14:27:03;9.82;;;3.13;;
60014;SDS011;45867;52.480;6.056;2022-07-17T14:29:28;5.93;;;3.30;;
60014;SDS011;45867;52.480;6.056;2022-07-17T14:31:54;6.35;;;2.90;;
60014;SDS011;45867;52.480;6.056;2022-07-17T14:34:19;6.90;;;3.20;;
60014;SDS011;45867;52.480;6.056;2022-07-17T14:36:45;8.32;;;3.20;;
60014;SDS011;45867;52.480;6.056;2022-07-17T14:39:14;6.03;;;3.00;;
60014;SDS011;45867;52.480;6.056;2022-07-17T14:41:40;5.03;;;2.95;;
60014;SDS011;45867;52.480;6.056;2022-07-17T14:44:05;10.75;;;3.75;;
60014;SDS011;45867;52.480;6.056;2022-07-17T14:46:30;7.35;;;3.47;;
60014;SDS011;45867;52.480;6.056;2022-07-17T14:48:55;7.03;;;3.33;;
60014;SDS011;45867;52.480;6.056;2022-07-17T14:51:21;4.40;;;2.97;;
60014;SDS011;45867;52.480;6.056;2022-07-17T14:53:46;8.57;;;3.10;;